createdAt,value
2018-02-14T00:02:23.854Z,38.90
2018-02-14T00:04:51.521Z,40.07
2018-02-14T00:07:19.120Z,40.37
2018-02-14T00:09:46.700Z,35.37
2018-02-14T00:12:14.355Z,40.13
2018-02-14T00:14:42.006Z,39.20
2018-02-14T00:17:09.565Z,41.63
2018-02-14T00:19:37.189Z,42.07
2018-02-14T00:22:04.833Z,43.70
2018-02-14T00:24:35.167Z,42.83
2018-02-14T00:27:02.999Z,40.67
2018-02-14T00:29:30.578Z,41.47
2018-02-14T00:31:58.157Z,41.87
2018-02-14T00:34:28.460Z,42.93
2018-02-14T00:36:56.033Z,43.13
2018-02-14T00:39:23.644Z,43.43
2018-02-14T00:41:51.282Z,41.23
2018-02-14T00:44:18.930Z,42.60
2018-02-14T00:46:46.545Z,41.87
2018-02-14T00:49:14.179Z,41.63
2018-02-14T00:51:41.765Z,41.53
2018-02-14T00:54:09.349Z,41.20
2018-02-14T00:56:37.018Z,39.93
2018-02-14T00:59:04.592Z,38.60
2018-02-14T01:01:32.176Z,39.93
2018-02-14T01:04:00.020Z,42.23
2018-02-14T01:06:27.611Z,38.40
2018-02-14T01:08:55.196Z,41.37
2018-02-14T01:11:22.846Z,38.90
2018-02-14T01:13:50.434Z,38.87
2018-02-14T01:16:18.029Z,38.20
2018-02-14T01:18:48.659Z,35.23
2018-02-14T01:21:16.274Z,38.43
2018-02-14T01:23:43.850Z,36.37
2018-02-14T01:26:11.540Z,36.70
2018-02-14T01:28:39.165Z,38.10
2018-02-14T01:31:06.731Z,34.57
2018-02-14T01:33:34.341Z,34.73
2018-02-14T01:36:02.432Z,33.83
2018-02-14T01:38:30.045Z,34.43
2018-02-14T01:40:57.676Z,32.30
2018-02-14T01:43:25.337Z,34.23
2018-02-14T01:45:53.052Z,32.50
2018-02-14T01:48:21.032Z,31.67
2018-02-14T01:50:48.617Z,34.07
2018-02-14T01:53:16.191Z,33.20
2018-02-14T01:55:43.835Z,32.03
2018-02-14T01:58:11.404Z,32.53
2018-02-14T02:00:38.997Z,32.13
2018-02-14T02:03:06.623Z,30.33
2018-02-14T02:05:34.196Z,30.67
2018-02-14T02:08:01.772Z,31.43
2018-02-14T02:10:29.400Z,31.30
2018-02-14T02:12:56.971Z,31.03
2018-02-14T02:15:24.564Z,30.47
2018-02-14T02:17:52.521Z,29.80
2018-02-14T02:20:20.137Z,30.67
2018-02-14T02:22:47.710Z,31.50
2018-02-14T02:25:15.397Z,28.70
2018-02-14T02:27:42.987Z,29.20
2018-02-14T02:30:10.567Z,30.63
2018-02-14T02:32:38.225Z,29.53
2018-02-14T02:35:05.821Z,28.57
2018-02-14T02:37:33.469Z,30.00
2018-02-14T02:40:12.852Z,29.37
2018-02-14T02:42:40.462Z,28.50
2018-02-14T02:45:08.071Z,29.40
2018-02-14T02:47:35.862Z,28.07
2018-02-14T02:50:03.474Z,29.77
2018-02-14T02:52:31.030Z,29.23
2018-02-14T02:54:58.661Z,29.37
2018-02-14T02:57:26.234Z,29.30
2018-02-14T02:59:53.812Z,29.70
2018-02-14T03:02:21.480Z,28.50
2018-02-14T03:04:49.076Z,27.33
2018-02-14T03:07:17.180Z,29.17
2018-02-14T03:09:45.133Z,28.13
2018-02-14T03:12:12.707Z,29.17
2018-02-14T03:14:40.380Z,29.53
2018-02-14T03:17:10.216Z,27.73
2018-02-14T03:19:37.861Z,29.57
2018-02-14T03:22:05.492Z,27.00
2018-02-14T03:24:33.154Z,28.47
2018-02-14T03:27:00.785Z,28.63
2018-02-14T03:29:28.377Z,26.63
2018-02-14T03:31:56.687Z,28.40
2018-02-14T03:34:24.250Z,28.90
2018-02-14T03:36:52.513Z,29.23
2018-02-14T03:39:20.125Z,28.03
2018-02-14T03:41:47.846Z,30.03
2018-02-14T03:44:15.473Z,28.50
2018-02-14T03:46:43.100Z,27.03
2018-02-14T03:49:10.837Z,29.57
2018-02-14T03:51:38.447Z,28.30
2018-02-14T03:54:06.066Z,29.37
2018-02-14T03:56:33.706Z,28.43
2018-02-14T03:59:01.275Z,27.07
2018-02-14T04:01:28.944Z,29.87
2018-02-14T04:03:56.546Z,28.77
2018-02-14T04:06:24.143Z,28.63
2018-02-14T04:08:51.774Z,28.87
2018-02-14T04:11:19.348Z,28.43
2018-02-14T04:13:46.911Z,28.17
2018-02-14T04:16:15.493Z,28.53
2018-02-14T04:18:43.141Z,28.03
2018-02-14T04:21:10.704Z,28.03
2018-02-14T04:23:38.408Z,29.90
2018-02-14T04:26:05.972Z,28.53
2018-02-14T04:28:33.568Z,27.17
2018-02-14T04:31:01.198Z,26.50
2018-02-14T04:33:28.844Z,27.80
2018-02-14T04:35:56.406Z,29.97
2018-02-14T04:38:24.096Z,30.33
2018-02-14T04:40:51.656Z,30.03
2018-02-14T04:43:19.305Z,29.83
2018-02-14T04:45:47.822Z,29.40
2018-02-14T04:48:15.413Z,29.37
2018-02-14T04:50:43.120Z,30.57
2018-02-14T04:53:10.809Z,29.73
2018-02-14T04:55:38.376Z,28.77
2018-02-14T04:58:05.954Z,28.97
2018-02-14T05:00:33.621Z,28.43
2018-02-14T05:03:01.290Z,29.73
2018-02-14T05:05:28.865Z,30.13
2018-02-14T05:07:56.718Z,31.63
2018-02-14T05:10:24.289Z,29.53
2018-02-14T05:12:52.785Z,29.30
2018-02-14T05:15:20.469Z,30.83
2018-02-14T05:17:48.044Z,31.40
2018-02-14T05:20:15.613Z,34.80
2018-02-14T05:22:43.303Z,35.13
2018-02-14T05:25:10.864Z,32.87
2018-02-14T05:27:38.424Z,32.93
2018-02-14T05:30:06.391Z,36.37
2018-02-14T05:32:33.974Z,34.80
2018-02-14T05:35:01.540Z,36.03
2018-02-14T05:37:29.168Z,35.83
2018-02-14T05:39:57.026Z,37.33
2018-02-14T05:42:24.667Z,34.13
2018-02-14T05:44:52.997Z,33.63
2018-02-14T05:47:21.308Z,34.47
2018-02-14T05:49:48.875Z,33.17
2018-02-14T05:52:16.585Z,35.00
2018-02-14T05:54:44.237Z,34.90
2018-02-14T05:57:11.857Z,34.40
2018-02-14T05:59:39.558Z,34.23
2018-02-14T06:02:07.614Z,33.60
2018-02-14T06:04:35.184Z,35.40
2018-02-14T06:07:03.087Z,35.53
2018-02-14T06:09:30.661Z,37.43
2018-02-14T06:11:58.240Z,36.03
2018-02-14T06:14:26.128Z,39.60
2018-02-14T06:16:53.766Z,38.37
2018-02-14T06:19:21.336Z,37.73
2018-02-14T06:21:48.959Z,36.83
2018-02-14T06:24:16.529Z,39.17
2018-02-14T06:26:44.391Z,36.60
2018-02-14T06:29:12.009Z,36.33
2018-02-14T06:31:40.270Z,36.00
2018-02-14T06:34:07.842Z,38.20
2018-02-14T06:36:35.620Z,36.33
2018-02-14T06:39:03.226Z,37.07
2018-02-14T06:41:30.790Z,35.33
2018-02-14T06:43:58.439Z,33.83
2018-02-14T06:46:26.017Z,35.87
2018-02-14T06:48:53.623Z,33.27
2018-02-14T06:51:21.259Z,33.40
2018-02-14T06:53:48.974Z,33.10
2018-02-14T06:56:16.607Z,32.77
2018-02-14T06:58:44.305Z,34.10
2018-02-14T07:01:11.946Z,34.57
2018-02-14T07:03:39.530Z,36.50
2018-02-14T07:06:07.153Z,35.53
2018-02-14T07:08:36.197Z,35.40
2018-02-14T07:11:03.785Z,34.03
2018-02-14T07:13:31.399Z,36.17
2018-02-14T07:15:58.977Z,36.20
2018-02-14T07:18:26.637Z,34.33
2018-02-14T07:20:54.405Z,35.83
2018-02-14T07:23:27.445Z,35.47
2018-02-14T07:25:55.125Z,33.63
2018-02-14T07:28:22.754Z,32.63
2018-02-14T07:30:50.344Z,29.73
2018-02-14T07:33:17.956Z,32.47
2018-02-14T07:35:45.543Z,29.07
2018-02-14T07:38:13.134Z,28.20
2018-02-14T07:40:40.820Z,26.40
2018-02-14T07:43:08.376Z,26.27
2018-02-14T07:45:36.066Z,25.43
2018-02-14T07:48:03.670Z,25.23
2018-02-14T07:50:31.246Z,27.07
2018-02-14T07:52:58.843Z,29.27
2018-02-14T07:55:26.624Z,27.13
2018-02-14T07:57:54.257Z,28.40
2018-02-14T08:00:21.829Z,26.53
2018-02-14T08:02:49.495Z,26.27
2018-02-14T08:05:17.074Z,28.30
2018-02-14T08:07:44.653Z,26.80
2018-02-14T08:10:12.274Z,27.03
2018-02-14T08:12:39.867Z,25.90
2018-02-14T08:15:07.457Z,26.93
2018-02-14T08:17:35.419Z,25.13
2018-02-14T08:20:02.988Z,26.30
2018-02-14T08:22:30.549Z,25.53
2018-02-14T08:24:58.189Z,27.40
2018-02-14T08:27:25.745Z,23.63
2018-02-14T08:29:53.382Z,23.87
2018-02-14T08:32:21.034Z,24.57
2018-02-14T08:34:48.612Z,23.90
2018-02-14T08:37:16.185Z,24.43
2018-02-14T08:42:39.022Z,24.70
2018-02-14T08:45:06.713Z,25.60
2018-02-14T08:47:34.303Z,25.23
2018-02-14T08:50:01.938Z,26.47
2018-02-14T08:52:30.554Z,24.67
2018-02-14T08:54:58.182Z,27.27
2018-02-14T08:57:25.958Z,26.37
2018-02-14T08:59:53.575Z,25.27
2018-02-14T09:02:21.280Z,26.83
2018-02-14T09:04:49.616Z,28.03
2018-02-14T09:07:17.326Z,26.27
2018-02-14T09:09:44.892Z,24.57
2018-02-14T09:12:12.489Z,22.47
2018-02-14T09:14:40.117Z,24.17
2018-02-14T09:17:07.688Z,24.60
2018-02-14T09:19:35.256Z,23.83
2018-02-14T09:22:02.893Z,21.87
2018-02-14T09:24:30.471Z,22.30
2018-02-14T09:26:58.048Z,24.03
2018-02-14T09:29:25.668Z,26.17
2018-02-14T09:31:53.271Z,24.30
2018-02-14T09:34:20.864Z,23.87
2018-02-14T09:36:48.524Z,23.43
2018-02-14T09:39:16.183Z,22.53
2018-02-14T09:41:43.748Z,21.63
2018-02-14T09:44:11.403Z,22.77
2018-02-14T09:46:39.001Z,20.60
2018-02-14T09:49:06.629Z,19.03
2018-02-14T09:51:34.252Z,19.83
2018-02-14T09:54:01.825Z,19.27
2018-02-14T09:56:29.385Z,20.67
2018-02-14T09:58:57.110Z,20.03
2018-02-14T10:01:24.688Z,19.13
2018-02-14T10:03:52.258Z,21.23
2018-02-14T10:06:19.885Z,22.50
2018-02-14T10:08:47.513Z,26.03
2018-02-14T10:11:15.100Z,27.80
2018-02-14T10:13:42.762Z,26.50
2018-02-14T10:16:10.386Z,24.03
2018-02-14T10:18:37.957Z,22.63
2018-02-14T10:21:05.638Z,23.83
2018-02-14T10:23:33.233Z,24.43
2018-02-14T10:26:00.875Z,23.83
2018-02-14T10:28:28.481Z,26.43
2018-02-14T10:30:56.130Z,26.73
2018-02-14T10:33:23.776Z,25.67
2018-02-14T10:35:51.658Z,24.37
2018-02-14T10:38:19.300Z,24.93
2018-02-14T10:40:46.883Z,25.23
2018-02-14T10:43:14.510Z,25.03
2018-02-14T10:45:42.142Z,24.67
2018-02-14T10:48:09.700Z,25.70
2018-02-14T10:50:37.354Z,26.33
2018-02-14T10:53:04.917Z,26.23
2018-02-14T10:55:32.504Z,28.20
2018-02-14T10:58:00.137Z,27.57
2018-02-14T11:00:33.381Z,25.50
2018-02-14T11:03:06.529Z,24.73
2018-02-14T11:05:34.099Z,25.77
2018-02-14T11:08:01.664Z,26.37
2018-02-14T11:10:29.272Z,24.03
2018-02-14T11:12:56.947Z,26.63
2018-02-14T11:15:24.594Z,23.13
2018-02-14T11:17:52.211Z,24.70
2018-02-14T11:20:19.781Z,26.47
2018-02-14T11:22:47.359Z,24.70
2018-02-14T11:25:14.973Z,22.47
2018-02-14T11:27:42.524Z,23.80
2018-02-14T11:30:10.164Z,26.93
2018-02-14T11:32:37.862Z,22.40
2018-02-14T11:35:05.490Z,23.80
2018-02-14T11:37:33.057Z,24.97
2018-02-14T11:40:00.937Z,25.33
2018-02-14T11:42:28.618Z,19.03
2018-02-14T11:44:56.729Z,15.53
2018-02-14T11:47:24.415Z,9.80
2018-02-14T11:49:52.077Z,6.77
2018-02-14T11:52:19.706Z,5.97
2018-02-14T11:54:47.407Z,6.13
2018-02-14T11:57:14.983Z,7.40
2018-02-14T11:59:42.553Z,6.57
2018-02-14T12:02:10.340Z,6.33
2018-02-14T12:04:37.903Z,4.00
2018-02-14T12:07:05.529Z,5.07
2018-02-14T12:09:33.221Z,3.90
2018-02-14T12:12:00.781Z,3.47
2018-02-14T12:14:28.381Z,2.40
2018-02-14T12:16:56.061Z,2.20
2018-02-14T12:19:23.656Z,2.30
2018-02-14T12:21:51.226Z,1.90
2018-02-14T12:24:18.873Z,2.30
2018-02-14T12:26:46.528Z,2.20
2018-02-14T12:29:14.330Z,2.00
2018-02-14T12:31:42.012Z,1.73
2018-02-14T12:34:13.317Z,1.93
2018-02-14T12:39:49.568Z,2.57
2018-02-14T12:42:17.205Z,3.20
2018-02-14T12:44:44.864Z,3.17
2018-02-14T12:47:12.433Z,3.00
2018-02-14T12:49:39.996Z,2.83
2018-02-14T12:52:07.664Z,2.70
2018-02-14T12:54:35.214Z,3.20
2018-02-14T12:57:02.780Z,2.90
2018-02-14T12:59:30.393Z,3.00
2018-02-14T13:01:58.036Z,3.00
2018-02-14T13:04:25.702Z,3.80
2018-02-14T13:06:53.352Z,3.63
2018-02-14T13:09:20.930Z,3.67
2018-02-14T13:11:48.517Z,3.20
2018-02-14T13:14:16.151Z,3.03
2018-02-14T13:16:44.356Z,2.80
2018-02-14T13:19:11.926Z,2.73
2018-02-14T13:21:39.531Z,2.17
2018-02-14T13:24:07.098Z,2.00
2018-02-14T13:26:34.679Z,1.90
2018-02-14T13:29:02.296Z,1.80
2018-02-14T13:31:30.190Z,2.00
2018-02-14T13:33:58.851Z,2.07
2018-02-14T13:36:26.470Z,1.73
2018-02-14T13:38:54.009Z,2.33
2018-02-14T13:41:21.591Z,2.10
2018-02-14T13:43:49.405Z,1.70
2018-02-14T13:46:16.985Z,1.83
2018-02-14T13:48:44.546Z,1.90
2018-02-14T13:51:12.176Z,1.90
2018-02-14T13:53:39.816Z,1.80
2018-02-14T13:56:07.443Z,1.67
2018-02-14T13:58:35.077Z,1.73
2018-02-14T14:01:02.713Z,1.70
2018-02-14T14:03:30.350Z,2.30
2018-02-14T14:05:58.960Z,1.90
2018-02-14T14:08:26.600Z,3.60
2018-02-14T14:10:54.168Z,2.40
2018-02-14T14:13:21.877Z,2.00
2018-02-14T14:15:49.463Z,1.60
2018-02-14T14:18:17.031Z,1.60
2018-02-14T14:20:44.644Z,1.70
2018-02-14T14:23:12.196Z,1.70
2018-02-14T14:25:39.769Z,1.50
2018-02-14T14:28:07.487Z,1.60
2018-02-14T14:30:35.041Z,1.40
2018-02-14T14:33:02.670Z,1.70
2018-02-14T14:35:30.282Z,1.50
2018-02-14T14:37:57.877Z,1.30
2018-02-14T14:40:25.484Z,1.50
2018-02-14T14:42:53.133Z,1.53
2018-02-14T14:45:20.712Z,1.50
2018-02-14T14:47:48.284Z,1.33
2018-02-14T14:50:15.886Z,1.40
2018-02-14T14:52:43.448Z,1.20
2018-02-14T14:55:11.044Z,1.30
2018-02-14T14:57:38.733Z,1.50
2018-02-14T15:00:06.409Z,1.40
2018-02-14T15:02:34.043Z,1.63
2018-02-14T15:05:01.680Z,1.20
2018-02-14T15:07:29.330Z,1.53
2018-02-14T15:09:56.952Z,1.33
2018-02-14T15:12:24.627Z,1.70
2018-02-14T15:14:52.197Z,1.43
2018-02-14T15:17:19.764Z,1.30
2018-02-14T15:19:47.406Z,1.30
2018-02-14T15:22:14.962Z,1.30
2018-02-14T15:24:42.538Z,1.17
2018-02-14T15:27:10.144Z,1.40
2018-02-14T15:29:38.360Z,1.53
2018-02-14T15:32:05.983Z,1.50
2018-02-14T15:34:33.674Z,1.53
2018-02-14T15:37:01.253Z,1.40
2018-02-14T15:39:28.834Z,1.30
2018-02-14T15:41:57.307Z,1.50
2018-02-14T15:44:24.890Z,1.20
2018-02-14T15:46:52.465Z,1.20
2018-02-14T15:49:20.080Z,1.30
2018-02-14T15:51:47.629Z,1.30
2018-02-14T15:54:15.378Z,1.40
2018-02-14T15:56:43.014Z,1.50
2018-02-14T15:59:10.607Z,1.20
2018-02-14T16:01:38.200Z,1.33
2018-02-14T16:04:06.475Z,1.50
2018-02-14T16:06:34.070Z,3.20
2018-02-14T16:09:01.713Z,3.57
2018-02-14T16:11:29.573Z,1.90
2018-02-14T16:13:57.129Z,1.30
2018-02-14T16:16:24.700Z,1.27
2018-02-14T16:18:52.341Z,1.20
2018-02-14T16:21:20.691Z,1.20
2018-02-14T16:23:48.848Z,1.50
2018-02-14T16:26:16.480Z,2.50
2018-02-14T16:28:44.083Z,1.60
2018-02-14T16:31:11.701Z,1.40
2018-02-14T16:33:39.301Z,1.50
2018-02-14T16:36:06.849Z,1.50
2018-02-14T16:38:34.405Z,1.60
2018-02-14T16:41:02.561Z,1.63
2018-02-14T16:43:30.217Z,1.30
2018-02-14T16:45:57.793Z,2.50
2018-02-14T16:48:25.502Z,1.40
2018-02-14T16:50:53.079Z,1.47
2018-02-14T16:53:20.716Z,1.53
2018-02-14T16:55:48.363Z,1.60
2018-02-14T16:58:16.006Z,1.60
2018-02-14T17:00:44.451Z,2.27
2018-02-14T17:03:12.920Z,1.63
2018-02-14T17:05:40.532Z,1.93
2018-02-14T17:08:08.946Z,2.60
2018-02-14T17:10:37.014Z,3.77
2018-02-14T17:13:04.569Z,2.80
2018-02-14T17:15:32.149Z,6.73
2018-02-14T17:17:59.823Z,2.53
2018-02-14T17:20:27.414Z,2.50
2018-02-14T17:22:54.981Z,3.00
2018-02-14T17:25:22.587Z,2.50
2018-02-14T17:27:50.209Z,3.23
2018-02-14T17:30:17.841Z,2.37
2018-02-14T17:32:45.464Z,2.90
2018-02-14T17:35:13.030Z,2.20
2018-02-14T17:37:40.658Z,2.00
2018-02-14T17:40:08.362Z,2.80
2018-02-14T17:42:35.993Z,3.70
2018-02-14T17:45:03.627Z,4.10
2018-02-14T17:47:32.119Z,4.43
2018-02-14T17:49:59.721Z,5.17
2018-02-14T17:52:27.390Z,5.60
2018-02-14T17:54:55.089Z,3.27
2018-02-14T17:57:23.241Z,2.80
2018-02-14T17:59:50.857Z,2.63
2018-02-14T18:02:19.360Z,3.40
2018-02-14T18:04:46.916Z,3.07
2018-02-14T18:07:14.491Z,6.47
2018-02-14T18:09:42.175Z,5.40
2018-02-14T18:12:09.981Z,6.73
2018-02-14T18:14:37.601Z,4.97
2018-02-14T18:17:05.220Z,4.90
2018-02-14T18:19:32.873Z,5.17
2018-02-14T18:22:00.491Z,6.73
2018-02-14T18:24:28.166Z,9.00
2018-02-14T18:26:55.757Z,5.40
2018-02-14T18:29:23.344Z,5.80
2018-02-14T18:31:51.010Z,11.23
2018-02-14T18:34:18.590Z,9.53
2018-02-14T18:36:46.164Z,10.23
2018-02-14T18:39:13.810Z,14.87
2018-02-14T18:41:41.394Z,11.63
2018-02-14T18:44:09.042Z,11.87
2018-02-14T18:46:36.672Z,8.90
2018-02-14T18:49:04.236Z,10.03
2018-02-14T18:51:31.848Z,14.50
2018-02-14T18:53:59.503Z,15.83
2018-02-14T18:56:27.101Z,10.87
2018-02-14T18:58:54.735Z,9.30
2018-02-14T19:01:22.375Z,12.03
2018-02-14T19:03:49.959Z,8.27
2018-02-14T19:06:17.537Z,9.93
2018-02-14T19:08:45.240Z,11.83
2018-02-14T19:11:12.895Z,9.83
2018-02-14T19:13:40.905Z,8.60
2018-02-14T19:16:09.084Z,5.93
2018-02-14T19:18:36.652Z,6.73
2018-02-14T19:21:04.231Z,6.27
2018-02-14T19:23:31.936Z,5.50
2018-02-14T19:25:59.497Z,5.80
2018-02-14T19:28:27.096Z,4.47
2018-02-14T19:30:55.785Z,4.93
2018-02-14T19:33:23.388Z,5.20
2018-02-14T19:35:51.015Z,4.70
2018-02-14T19:38:19.506Z,4.97
2018-02-14T19:40:47.083Z,5.53
2018-02-14T19:43:14.682Z,5.23
2018-02-14T19:45:42.369Z,5.20
2018-02-14T19:48:09.933Z,4.93
2018-02-14T19:50:37.576Z,7.53
2018-02-14T19:53:05.438Z,5.60
2018-02-14T19:55:33.536Z,5.77
2018-02-14T19:58:01.108Z,6.37
2018-02-14T20:00:28.718Z,6.23
2018-02-14T20:02:56.274Z,7.40
2018-02-14T20:05:23.858Z,6.23
2018-02-14T20:07:51.736Z,6.03
2018-02-14T20:10:19.322Z,11.03
2018-02-14T20:12:46.969Z,11.67
2018-02-14T20:15:14.701Z,11.03
2018-02-14T20:17:42.285Z,11.17
2018-02-14T20:20:09.854Z,11.77
2018-02-14T20:22:37.516Z,11.37
2018-02-14T20:25:05.152Z,10.73
2018-02-14T20:27:32.742Z,11.43
2018-02-14T20:30:00.472Z,10.00
2018-02-14T20:32:28.044Z,10.93
2018-02-14T20:34:55.616Z,10.87
2018-02-14T20:37:23.246Z,10.53
2018-02-14T20:39:50.878Z,10.17
2018-02-14T20:42:18.520Z,8.77
2018-02-14T20:44:47.181Z,10.03
2018-02-14T20:47:14.766Z,10.57
2018-02-14T20:49:42.406Z,11.63
2018-02-14T20:52:10.033Z,13.10
2018-02-14T20:54:37.626Z,18.80
2018-02-14T20:57:05.218Z,16.17
2018-02-14T20:59:32.855Z,12.27
2018-02-14T21:02:00.437Z,10.90
2018-02-14T21:04:28.019Z,10.23
2018-02-14T21:06:55.661Z,11.00
2018-02-14T21:09:23.250Z,11.80
2018-02-14T21:11:50.832Z,11.67
2018-02-14T21:14:18.491Z,12.97
2018-02-14T21:16:46.149Z,12.50
2018-02-14T21:19:13.739Z,9.07
2018-02-14T21:21:41.447Z,8.67
2018-02-14T21:24:09.073Z,8.20
2018-02-14T21:26:36.636Z,8.83
2018-02-14T21:29:04.311Z,8.90
2018-02-14T21:31:31.982Z,9.80
2018-02-14T21:33:59.549Z,8.70
2018-02-14T21:36:27.370Z,8.87
2018-02-14T21:38:54.985Z,8.73
2018-02-14T21:41:22.620Z,8.53
2018-02-14T21:43:50.228Z,9.37
2018-02-14T21:46:17.791Z,8.63
2018-02-14T21:48:45.448Z,9.10
2018-02-14T21:51:13.131Z,9.93
2018-02-14T21:53:40.787Z,10.00
2018-02-14T21:56:08.928Z,9.43
2018-02-14T21:58:36.563Z,8.77
2018-02-14T22:01:04.160Z,10.13
2018-02-14T22:03:31.744Z,21.73
2018-02-14T22:05:59.441Z,11.40
2018-02-14T22:08:27.020Z,9.77
2018-02-14T22:10:54.622Z,9.53
2018-02-14T22:13:22.245Z,9.23
2018-02-14T22:15:49.833Z,11.27
2018-02-14T22:18:17.838Z,10.67
2018-02-14T22:20:45.487Z,13.30
2018-02-14T22:23:13.079Z,12.13
2018-02-14T22:25:40.692Z,11.60
2018-02-14T22:28:08.330Z,12.07
2018-02-14T22:30:35.902Z,12.17
2018-02-14T22:33:03.500Z,12.20
2018-02-14T22:35:31.150Z,18.53
2018-02-14T22:37:58.826Z,15.07
2018-02-14T22:40:26.425Z,13.10
2018-02-14T22:42:54.080Z,15.70
2018-02-14T22:45:21.753Z,17.00
2018-02-14T22:47:49.393Z,15.83
2018-02-14T22:50:17.072Z,16.07
2018-02-14T22:52:44.712Z,12.17
2018-02-14T22:55:12.326Z,11.73
2018-02-14T22:57:39.962Z,10.70
2018-02-14T23:00:07.597Z,10.20
2018-02-14T23:02:35.224Z,10.07
2018-02-14T23:05:02.864Z,14.33
2018-02-14T23:07:30.466Z,14.17
2018-02-14T23:09:58.756Z,12.77
2018-02-14T23:12:26.637Z,12.33
2018-02-14T23:14:54.205Z,9.73
2018-02-14T23:17:21.765Z,9.77
2018-02-14T23:19:49.551Z,10.23
2018-02-14T23:22:17.140Z,9.80
2018-02-14T23:24:44.780Z,11.00
2018-02-14T23:27:12.450Z,13.70
2018-02-14T23:29:40.038Z,17.00
2018-02-14T23:32:07.651Z,13.07
2018-02-14T23:34:35.286Z,11.70
2018-02-14T23:37:02.856Z,11.10
2018-02-14T23:39:30.515Z,11.67
2018-02-14T23:41:58.451Z,12.13
2018-02-14T23:44:26.036Z,12.17
2018-02-14T23:46:53.689Z,13.53
2018-02-14T23:49:21.377Z,17.20
2018-02-14T23:51:48.993Z,14.77
2018-02-14T23:54:16.919Z,14.13
2018-02-14T23:56:44.536Z,14.60
2018-02-14T23:59:12.136Z,15.77
